Terminal Aerodrome Forecast
Issued by NWS Buffalo, NY

Home | Current Version | Previous Version | Text Only | Print | Product List | Glossary On
Versions: 1 2 3 4 5 6 7 8 9 10 11 12 13 14 15 16 17 18 19 20 21 22 23 24
000
FTUS41 KBUF 040527
TAFROC
TAF
KROC 040527Z 0406/0506 20006KT P6SM SKC
     FM041400 22011KT P6SM FEW250
     FM041800 24020KT P6SM SCT080
     FM042200 25018KT P6SM BKN070
     FM050300 25008KT 6SM -SHRA OVC030=

USA.gov is the U.S. government's official web portal to all federal, state and local government web resources and services.